Aeroporto :
LOGIN :

Iscrizione | Disclaimer

   EN    FR    IT 

 










Sommario :    VFR   VFR Marginale   IFR   IFR Intensivo   IFR Molto Intensivo
Visibilità : 
Base nubi : 
>= 8 km
>= 3000ft
5 / 8 km
1000 / 3000 ft
1500m / 5 km
500 / 1000 ft
800 / 1500m
200 / 500 ft
< 800m
< 200 ft
Simboli :   Temporali  Nebbia  Neve Forte  Precipitazioni Forti  Vento > 20 kt
SIGMETs :   Varie  Temporali  Ghiacco  Turbolenza  Onda orograficha  Ceneri Vulcaniche






- Altitudine del aeroporto : 161 ft
- Codice IATA : TKU


EFTU - Turku

ULTIMO METAR :
  • 032350Z AUTO 18005KT CAVOK 14/11 Q1006

METARs OBSOLETI :
  • 032320Z AUTO 18006KT 160V220 9999 FEW021 14/11 Q1007
  • 032250Z AUTO 18006KT CAVOK 14/12 Q1007
  • 032220Z AUTO 17005KT CAVOK 14/11 Q1007
  • 032150Z AUTO 18005KT CAVOK 14/11 Q1007
  • 032120Z AUTO 18004KT CAVOK 14/11 Q1007
  • 032050Z AUTO 17005KT CAVOK 15/11 Q1007

TAF TAF EFTU
Valido dal 04 a 00 ore il 05 a 00 ore UTC


032322Z 0400/0424 18005KT 9999 FEW020
BECMG 0406/0408 18015KT
TEMPO 0410/0421 7000 RA BKN014 FEW030CB



MetMap, La meteo Aeronautica in un colpo d'occhio ! - Copyright ORBIFLY Dicembre 2007 - Disclaimer

ORBIFLY MET'MAP TEAM :

Programmazione e sviluppo : Alexandra Zaïnal
Concezione : Baudouin d'Aumeries
Aiuto per la programmazione : Marc-Olivier Méhu
Supporto tecnico e logistico : Manuel Goepfert
Aiuto per la traduzione : Arnaldo La Scala

Contatto : metmap@orbifly.com




FONTI E CREDITI :

   NOAA